Aeroporto :
LOGIN :

Iscrizione | Disclaimer

   EN    FR    IT 

 










Sommario :    VFR   VFR Marginale   IFR   IFR Intensivo   IFR Molto Intensivo
Visibilità : 
Base nubi : 
>= 8 km
>= 3000ft
5 / 8 km
1000 / 3000 ft
1500m / 5 km
500 / 1000 ft
800 / 1500m
200 / 500 ft
< 800m
< 200 ft
Simboli :   Temporali  Nebbia  Neve Forte  Precipitazioni Forti  Vento > 20 kt
SIGMETs :   Varie  Temporali  Ghiacco  Turbolenza  Onda orograficha  Ceneri Vulcaniche






- Altitudine del aeroporto : 147 ft
- Codice IATA : DUS


EDDL - Düsseldorf Int.

ULTIMO METAR :
  • 200720Z VRB01KT 3800 BR NSC M01/M01 Q1019 BECMG 6000

METARs OBSOLETI :
  • 200650Z VRB02KT 2200 1000W R05L/0800VP2000D R05R/P2000N BCFG FEW001 M01/M01 Q1019 TEMPO 0800 FZFG
  • 200620Z VRB02KT 3000 1000NE R05L/P2000N R05R/P2000N BCFG BR FEW001 M01/M01 Q1019 TEMPO 0800 FZFG BKN001
  • 200550Z VRB02KT 6000 SCT040 01/00 Q1019 TEMPO 2000 BCFG
  • 200520Z VRB01KT 7000 SCT040 01/01 Q1018 TEMPO 4000 BR
  • 200450Z VRB02KT 7000 FEW024 BKN038 01/01 Q1019 TEMPO 4000 BR

TAF AMD TAF EDDL
Valido dal 20 a 06 ore il 21 a 12 ore UTC


200620Z 2006/2112 15004KT 3000 BR FEW002
PROB30
TEMPO 2006/2009 0800 FZFG BKN001
BECMG 2009/2012 9999
BECMG 2011/2014 08005KT
BECMG 2108/2111 14007KT



MetMap, La meteo Aeronautica in un colpo d'occhio ! - Copyright ORBIFLY Dicembre 2007 - Disclaimer

ORBIFLY MET'MAP TEAM :

Programmazione e sviluppo : Alexandra Zaïnal
Concezione e sviluppo : Baudouin d'Aumeries
Co-Programmazione e sviluppo : Marc-Olivier Méhu
Supporto tecnico e logistico : Manuel Goepfert
Aiuto per la traduzione : Arnaldo La Scala

Contatto : metmap@orbifly.com




FONTI E CREDITI :

   NOAA